Time;durP1;ratioP1;P1;durP2;ratioP2;P2;SDS_P1;SDS_P2;PMS_P1;PMS_P2;Temp;Humidity;BMP_temperature;BMP_pressure;BME280_temperature;BME280_humidity;BME280_pressure;Samples;Min_cycle;Max_cycle;Signal;HPM_P1;HPM_P2
2023/11/17 00:01:29;;;;;;;9.60;4.25;;;3.80;99.90;;;;;;5031418;28;20503;-73
2023/11/17 00:03:55;;;;;;;15.00;3.75;;;3.70;99.90;;;;;;5030858;28;20043;-72
2023/11/17 00:06:21;;;;;;;6.70;3.30;;;3.70;99.90;;;;;;5030553;28;20056;-74
2023/11/17 00:08:47;;;;;;;8.30;4.15;;;3.70;99.90;;;;;;5031332;28;20175;-74
2023/11/17 00:11:16;;;;;;;7.18;3.67;;;3.70;99.90;;;;;;5030563;28;20513;-75
2023/11/17 00:13:42;;;;;;;7.20;4.00;;;3.60;99.90;;;;;;5031691;28;20037;-72
2023/11/17 00:16:09;;;;;;;8.88;4.38;;;3.70;99.90;;;;;;5030930;28;21129;-73
2023/11/17 00:18:37;;;;;;;10.10;4.13;;;3.60;99.90;;;;;;5030407;28;20017;-73
2023/11/17 00:21:04;;;;;;;8.57;4.55;;;3.70;99.90;;;;;;5031106;28;20565;-74
2023/11/17 00:23:30;;;;;;;11.02;4.20;;;3.70;99.90;;;;;;5031308;28;20028;-73
2023/11/17 00:25:56;;;;;;;7.15;3.55;;;3.70;99.90;;;;;;5030765;28;20073;-72
2023/11/17 00:28:22;;;;;;;7.85;3.90;;;3.70;99.90;;;;;;5031559;28;20041;-74
2023/11/17 00:30:51;;;;;;;8.65;3.85;;;3.70;99.90;;;;;;5029647;28;20407;-74
2023/11/17 00:33:19;;;;;;;9.52;4.65;;;3.70;99.90;;;;;;5030582;28;20025;-74
2023/11/17 00:35:47;;;;;;;9.60;4.03;;;3.70;99.90;;;;;;5031211;28;20487;-73
2023/11/17 00:38:13;;;;;;;8.90;4.15;;;3.70;99.90;;;;;;5030379;28;20025;-75
2023/11/17 00:40:39;;;;;;;10.38;4.63;;;3.70;99.90;;;;;;5030676;28;20057;-74
2023/11/17 00:43:05;;;;;;;10.48;4.35;;;3.70;99.90;;;;;;5030790;28;20083;-74
2023/11/17 00:45:34;;;;;;;8.68;3.97;;;3.70;99.90;;;;;;5030060;28;20104;-75
2023/11/17 00:47:59;;;;;;;7.63;4.18;;;3.80;99.90;;;;;;5029409;28;20360;-74
2023/11/17 00:50:25;;;;;;;7.97;4.18;;;3.80;99.90;;;;;;5030627;28;20025;-74
2023/11/17 00:52:54;;;;;;;6.75;3.63;;;3.80;99.90;;;;;;5030659;28;20049;-74
2023/11/17 00:55:21;;;;;;;12.20;4.30;;;3.80;99.90;;;;;;5030697;28;20038;-72
2023/11/17 00:57:47;;;;;;;7.15;3.80;;;3.90;99.90;;;;;;5030763;28;20017;-74
2023/11/17 01:00:13;;;;;;;9.25;4.60;;;3.80;99.90;;;;;;5030303;28;20048;-73
2023/11/17 01:02:40;;;;;;;8.13;4.10;;;3.70;99.90;;;;;;5030566;28;20032;-75
2023/11/17 01:05:10;;;;;;;9.35;4.68;;;3.70;99.90;;;;;;5030375;28;20429;-73
2023/11/17 01:07:36;;;;;;;12.38;5.05;;;3.70;99.90;;;;;;5028849;28;20444;-74
2023/11/17 01:10:05;;;;;;;11.65;4.50;;;3.70;99.90;;;;;;5030465;28;20018;-74
2023/11/17 01:12:34;;;;;;;11.20;4.32;;;3.60;99.90;;;;;;5030801;28;20026;-73
2023/11/17 01:15:03;;;;;;;12.95;4.78;;;3.60;99.90;;;;;;5033847;28;20125;-73
2023/11/17 01:17:29;;;;;;;8.70;4.57;;;3.60;99.90;;;;;;5034575;28;20479;-74
2023/11/17 01:19:54;;;;;;;9.00;4.30;;;3.60;99.90;;;;;;5034735;28;20065;-73
2023/11/17 01:22:20;;;;;;;9.52;4.75;;;3.60;99.90;;;;;;5033794;28;20030;-73
2023/11/17 01:24:46;;;;;;;9.82;4.40;;;3.60;99.90;;;;;;5034436;28;20045;-73
2023/11/17 01:27:12;;;;;;;9.57;5.05;;;3.50;99.90;;;;;;5033888;28;20129;-73
2023/11/17 01:29:37;;;;;;;13.65;5.55;;;3.50;99.90;;;;;;5033637;28;20030;-72
2023/11/17 01:32:03;;;;;;;9.75;4.63;;;3.60;99.90;;;;;;5033556;28;20032;-74
2023/11/17 01:34:29;;;;;;;7.72;4.22;;;3.60;99.90;;;;;;5034205;28;20160;-73
2023/11/17 01:36:55;;;;;;;7.25;3.88;;;3.60;99.90;;;;;;5032377;28;20030;-72
2023/11/17 01:39:21;;;;;;;10.20;4.20;;;3.60;99.90;;;;;;5034858;28;20087;-72
2023/11/17 01:41:47;;;;;;;9.40;4.30;;;3.60;99.90;;;;;;5032321;28;20022;-73
2023/11/17 01:44:13;;;;;;;8.57;4.30;;;3.60;99.90;;;;;;5032761;28;20025;-73
2023/11/17 01:46:39;;;;;;;12.13;4.50;;;3.60;99.90;;;;;;5037820;28;20040;-73
2023/11/17 01:49:05;;;;;;;9.18;4.35;;;3.50;99.90;;;;;;5033281;28;20025;-73
2023/11/17 01:51:32;;;;;;;10.57;4.50;;;3.50;99.90;;;;;;5033742;28;20048;-72
2023/11/17 01:53:58;;;;;;;9.40;4.00;;;3.60;99.90;;;;;;5032138;28;20029;-74
2023/11/17 01:56:25;;;;;;;7.90;4.20;;;3.60;99.90;;;;;;5033383;28;20543;-73
2023/11/17 01:58:51;;;;;;;8.57;4.22;;;3.60;99.90;;;;;;5033356;28;20038;-73
2023/11/17 02:01:16;;;;;;;8.70;4.03;;;3.60;99.90;;;;;;5033678;28;20025;-73
2023/11/17 02:03:43;;;;;;;8.75;3.88;;;3.60;99.90;;;;;;5033230;28;20084;-73
2023/11/17 02:06:42;;;;;;;9.68;3.75;;;3.60;99.90;;;;;;5033346;28;20089;-73
2023/11/17 02:09:16;;;;;;;8.07;4.13;;;3.60;99.90;;;;;;5033428;28;20030;-73
2023/11/17 02:11:58;;;;;;;11.55;3.95;;;3.60;99.90;;;;;;5032656;28;20087;-74
2023/11/17 02:14:30;;;;;;;7.70;4.05;;;3.60;99.90;;;;;;5031994;28;20034;-73
2023/11/17 02:17:00;;;;;;;9.10;3.85;;;3.60;99.90;;;;;;5032836;28;20101;-74
2023/11/17 02:19:38;;;;;;;7.90;3.67;;;3.60;99.90;;;;;;5032631;28;20037;-73
2023/11/17 02:22:09;;;;;;;7.63;3.90;;;3.50;99.90;;;;;;5033149;28;20029;-72
2023/11/17 02:25:10;;;;;;;9.27;4.10;;;3.50;99.90;;;;;;5032149;28;20028;-73
2023/11/17 02:28:00;;;;;;;8.35;4.07;;;3.50;99.90;;;;;;5033942;28;20029;-72
2023/11/17 02:30:33;;;;;;;6.80;3.60;;;3.50;99.90;;;;;;5033405;28;20049;-75
2023/11/17 02:33:00;;;;;;;8.38;3.90;;;3.50;99.90;;;;;;5032564;28;20018;-73
2023/11/17 02:35:29;;;;;;;8.80;4.30;;;3.50;99.90;;;;;;5032530;28;20038;-72
2023/11/17 02:38:00;;;;;;;8.63;3.72;;;3.50;99.90;;;;;;5032662;28;20104;-74
2023/11/17 02:40:28;;;;;;;18.65;4.60;;;3.50;99.90;;;;;;5047531;28;21125;-73
2023/11/17 02:42:57;;;;;;;10.13;5.03;;;3.50;99.90;;;;;;5038821;28;20028;-72
2023/11/17 02:45:25;;;;;;;7.68;4.00;;;3.50;99.90;;;;;;5032949;28;20094;-72
2023/11/17 02:47:56;;;;;;;11.40;4.03;;;3.50;99.90;;;;;;5032533;28;20052;-72
2023/11/17 02:50:31;;;;;;;9.85;4.70;;;3.50;99.90;;;;;;5033443;28;20021;-73
2023/11/17 02:55:57;;;;;;;9.05;4.05;;;3.50;99.90;;;;;;5036356;28;20124;-75
2023/11/17 02:58:25;;;;;;;10.65;4.47;;;3.50;99.90;;;;;;5032728;28;20025;-73
2023/11/17 03:00:51;;;;;;;11.18;4.18;;;3.50;99.90;;;;;;5038708;28;20093;-72
2023/11/17 03:03:22;;;;;;;9.15;4.40;;;3.50;99.90;;;;;;5032139;28;20042;-73
2023/11/17 03:05:58;;;;;;;9.10;4.80;;;3.50;99.90;;;;;;5033437;28;20029;-73
2023/11/17 03:08:23;;;;;;;11.43;4.50;;;3.50;99.90;;;;;;5032353;28;20022;-75
2023/11/17 03:10:49;;;;;;;9.60;4.65;;;3.50;99.90;;;;;;5032194;28;20026;-73
2023/11/17 03:13:16;;;;;;;10.27;5.20;;;3.50;99.90;;;;;;5032357;28;20025;-74
2023/11/17 03:15:43;;;;;;;10.57;4.25;;;3.50;99.90;;;;;;5031467;28;20046;-73
2023/11/17 03:18:09;;;;;;;8.00;4.40;;;3.50;99.90;;;;;;5032297;28;20021;-73
2023/11/17 03:20:35;;;;;;;9.10;4.85;;;3.50;99.90;;;;;;5032429;28;20030;-72
2023/11/17 03:23:01;;;;;;;9.13;4.80;;;3.60;99.90;;;;;;5031967;28;20084;-74
2023/11/17 03:25:26;;;;;;;13.10;4.72;;;3.60;99.90;;;;;;5032478;28;20490;-73
2023/11/17 03:27:52;;;;;;;8.90;4.10;;;3.60;99.90;;;;;;5032286;28;20101;-73
2023/11/17 03:30:18;;;;;;;9.38;5.30;;;3.60;99.90;;;;;;5031469;28;20062;-73
2023/11/17 03:32:45;;;;;;;9.00;4.45;;;3.70;99.90;;;;;;5032004;28;20021;-74
2023/11/17 03:35:11;;;;;;;10.32;4.55;;;3.60;99.90;;;;;;5031535;28;20045;-73
2023/11/17 03:37:38;;;;;;;7.72;4.35;;;3.70;99.90;;;;;;5031531;28;20354;-73
2023/11/17 03:40:07;;;;;;;10.45;4.90;;;3.60;99.90;;;;;;5032119;28;20110;-72
2023/11/17 03:42:34;;;;;;;9.52;4.68;;;3.60;99.90;;;;;;5031652;28;20132;-73
2023/11/17 03:45:02;;;;;;;12.75;5.20;;;3.70;99.90;;;;;;5031051;28;20029;-73
2023/11/17 03:47:28;;;;;;;10.98;5.05;;;3.70;99.90;;;;;;5038199;28;20029;-72
2023/11/17 03:49:53;;;;;;;12.50;5.32;;;3.70;99.90;;;;;;5031267;28;20030;-73
2023/11/17 03:52:23;;;;;;;12.35;5.22;;;3.70;99.90;;;;;;5031501;28;20058;-73
2023/11/17 03:54:48;;;;;;;12.98;5.18;;;3.70;99.90;;;;;;5032217;28;20013;-73
2023/11/17 03:57:14;;;;;;;10.55;5.38;;;3.70;99.90;;;;;;5031454;28;20025;-73
2023/11/17 03:59:40;;;;;;;9.48;5.05;;;3.70;99.90;;;;;;5031298;28;20108;-73
2023/11/17 04:02:05;;;;;;;13.35;5.30;;;3.70;99.90;;;;;;5031722;28;20041;-73
2023/11/17 04:04:31;;;;;;;11.40;4.45;;;3.70;99.90;;;;;;5031077;28;20076;-73
2023/11/17 04:06:57;;;;;;;8.10;4.55;;;3.70;99.90;;;;;;5030726;28;20032;-74
2023/11/17 04:09:24;;;;;;;10.48;4.45;;;3.70;99.90;;;;;;5031583;28;20018;-74
2023/11/17 04:11:54;;;;;;;8.40;4.47;;;3.70;99.90;;;;;;5031163;28;20025;-74
2023/11/17 04:14:21;;;;;;;10.10;4.95;;;3.60;99.90;;;;;;5037869;28;20382;-74
2023/11/17 04:16:47;;;;;;;10.95;4.68;;;3.60;99.90;;;;;;5030559;28;20046;-73
2023/11/17 04:19:19;;;;;;;7.32;3.78;;;3.60;99.90;;;;;;5030661;28;20117;-72
2023/11/17 04:21:46;;;;;;;9.05;4.25;;;3.60;99.90;;;;;;5031178;28;20443;-72
2023/11/17 04:24:12;;;;;;;8.88;4.78;;;3.60;99.90;;;;;;5030540;28;20025;-72
2023/11/17 04:26:40;;;;;;;12.27;5.03;;;3.60;99.90;;;;;;5030589;28;20079;-73
2023/11/17 04:29:06;;;;;;;10.73;4.97;;;3.60;99.90;;;;;;5037646;28;20402;-74
2023/11/17 04:31:32;;;;;;;14.38;4.78;;;3.70;99.90;;;;;;5030852;28;20017;-75
2023/11/17 04:33:58;;;;;;;9.10;4.90;;;3.70;99.90;;;;;;5030765;28;20044;-72
2023/11/17 04:36:23;;;;;;;10.18;4.70;;;3.70;99.90;;;;;;5031255;28;20043;-74
2023/11/17 04:38:50;;;;;;;10.57;4.93;;;3.70;99.90;;;;;;5031137;28;20028;-72
2023/11/17 04:41:16;;;;;;;12.65;5.20;;;3.70;99.90;;;;;;5030474;28;20110;-73
2023/11/17 04:43:42;;;;;;;10.80;5.35;;;3.70;99.90;;;;;;5031233;28;20041;-74
2023/11/17 04:46:17;;;;;;;13.75;6.47;;;3.70;99.90;;;;;;5030778;28;20141;-72
2023/11/17 04:48:42;;;;;;;14.02;6.55;;;3.70;99.90;;;;;;5033113;28;20030;-72
2023/11/17 04:51:08;;;;;;;15.07;7.05;;;3.70;99.90;;;;;;5041302;28;20029;-73
2023/11/17 04:53:34;;;;;;;18.90;8.77;;;3.70;99.90;;;;;;5034466;28;20067;-72
2023/11/17 04:56:00;;;;;;;18.92;8.43;;;3.70;99.90;;;;;;5034624;28;20048;-71
2023/11/17 04:58:25;;;;;;;16.13;8.25;;;3.70;99.90;;;;;;5034681;28;20034;-71
2023/11/17 05:00:51;;;;;;;18.70;8.68;;;3.70;99.90;;;;;;5032559;28;20125;-74
2023/11/17 05:03:18;;;;;;;15.90;7.82;;;3.70;99.90;;;;;;5034902;28;20033;-70
2023/11/17 05:05:44;;;;;;;16.08;7.63;;;3.60;99.90;;;;;;5038298;28;20033;-71
2023/11/17 05:08:10;;;;;;;17.33;8.57;;;3.60;99.90;;;;;;5034001;28;20086;-71
2023/11/17 05:10:36;;;;;;;15.80;8.90;;;3.60;99.90;;;;;;5033772;28;20026;-72
2023/11/17 05:13:01;;;;;;;18.27;8.45;;;3.60;99.90;;;;;;5034908;28;20037;-72
2023/11/17 05:15:27;;;;;;;19.95;8.60;;;3.60;99.90;;;;;;5033164;28;20054;-73
2023/11/17 05:17:53;;;;;;;15.98;7.85;;;3.60;99.90;;;;;;5034153;28;20497;-75
2023/11/17 05:20:22;;;;;;;15.77;8.05;;;3.70;99.90;;;;;;5035121;28;20034;-75
2023/11/17 05:22:49;;;;;;;15.48;8.27;;;3.70;99.90;;;;;;5034410;28;20026;-72
2023/11/17 05:25:15;;;;;;;17.73;9.07;;;3.70;99.90;;;;;;5034626;28;20013;-76
2023/11/17 05:27:42;;;;;;;18.13;8.82;;;3.80;99.90;;;;;;5040890;28;20026;-73
2023/11/17 05:30:10;;;;;;;16.75;8.68;;;3.80;99.90;;;;;;5034021;28;20057;-74
2023/11/17 05:32:36;;;;;;;19.80;8.63;;;3.80;99.90;;;;;;5034489;28;20026;-76
2023/11/17 05:35:06;;;;;;;15.48;8.27;;;3.80;99.90;;;;;;5033584;28;20038;-75
2023/11/17 05:37:32;;;;;;;19.98;7.97;;;3.90;99.90;;;;;;5038419;28;20029;-77
2023/11/17 05:40:06;;;;;;;16.15;8.70;;;3.90;99.90;;;;;;5032274;28;20060;-76
2023/11/17 05:42:32;;;;;;;18.00;8.27;;;3.90;99.90;;;;;;5033010;28;20083;-75
2023/11/17 05:44:58;;;;;;;18.55;8.27;;;4.00;99.90;;;;;;5033482;28;20383;-75
2023/11/17 05:47:24;;;;;;;16.40;8.75;;;4.00;99.90;;;;;;5038419;28;20037;-76
2023/11/17 05:49:49;;;;;;;16.95;8.45;;;4.00;99.90;;;;;;5033739;28;20037;-74
2023/11/17 05:52:16;;;;;;;19.00;8.85;;;4.00;99.90;;;;;;5034148;28;20056;-76
2023/11/17 05:54:45;;;;;;;15.15;8.35;;;4.10;99.90;;;;;;5040576;28;20117;-77
2023/11/17 05:57:14;;;;;;;17.52;8.63;;;4.10;99.90;;;;;;5033435;28;20033;-78
2023/11/17 05:59:42;;;;;;;19.75;8.90;;;4.20;99.90;;;;;;5032817;28;20089;-76
2023/11/17 06:02:10;;;;;;;15.20;8.20;;;4.20;99.90;;;;;;5039811;28;20446;-75
2023/11/17 06:04:36;;;;;;;17.38;8.60;;;4.20;99.90;;;;;;5039462;28;20028;-78
2023/11/17 06:07:02;;;;;;;14.68;8.40;;;4.20;99.90;;;;;;5040247;28;20021;-76
2023/11/17 06:09:29;;;;;;;13.05;7.57;;;4.20;99.90;;;;;;5033607;28;20021;-77
2023/11/17 06:11:55;;;;;;;18.80;8.82;;;4.30;99.90;;;;;;5032849;28;20099;-76
2023/11/17 06:14:27;;;;;;;15.52;8.25;;;4.30;99.90;;;;;;5032042;28;20032;-77
2023/11/17 06:16:53;;;;;;;15.00;7.85;;;4.30;99.90;;;;;;5048481;28;20050;-76
2023/11/17 06:19:20;;;;;;;16.55;7.90;;;4.30;99.90;;;;;;5032019;28;20049;-76
2023/11/17 06:21:46;;;;;;;14.48;8.20;;;4.30;99.90;;;;;;5033671;28;20030;-75
2023/11/17 06:24:14;;;;;;;19.45;8.23;;;4.40;99.90;;;;;;5033242;28;20045;-75
2023/11/17 06:26:45;;;;;;;14.85;9.02;;;4.50;99.90;;;;;;5036453;28;20060;-76
2023/11/17 06:29:22;;;;;;;19.55;8.00;;;4.40;99.90;;;;;;5033656;28;20060;-76
2023/11/17 06:31:48;;;;;;;15.20;7.95;;;4.50;99.90;;;;;;5035598;28;20053;-77
2023/11/17 06:34:14;;;;;;;16.13;7.97;;;4.40;99.90;;;;;;5034414;28;20038;-78
2023/11/17 06:36:41;;;;;;;16.25;8.30;;;4.50;99.90;;;;;;5033781;28;20118;-77
2023/11/17 06:39:14;;;;;;;16.85;7.80;;;4.50;99.90;;;;;;5036912;28;20509;-76
2023/11/17 06:41:49;;;;;;;15.27;7.95;;;4.50;99.90;;;;;;5032568;28;20093;-77
2023/11/17 06:44:16;;;;;;;14.48;7.75;;;4.50;99.90;;;;;;5038658;28;20033;-76
2023/11/17 06:46:45;;;;;;;14.82;8.20;;;4.50;99.90;;;;;;5032122;28;20081;-74
2023/11/17 06:49:15;;;;;;;15.60;7.75;;;4.60;99.90;;;;;;5032648;28;20022;-75
2023/11/17 06:51:42;;;;;;;15.25;8.30;;;4.60;99.90;;;;;;5033126;28;20029;-75
2023/11/17 06:54:13;;;;;;;16.85;9.00;;;4.60;99.90;;;;;;5031463;28;20082;-74
2023/11/17 06:56:42;;;;;;;32.50;10.30;;;4.60;99.90;;;;;;5032697;28;20033;-75
2023/11/17 06:59:09;;;;;;;25.50;10.50;;;4.70;99.90;;;;;;5032677;28;20019;-76
2023/11/17 07:01:36;;;;;;;18.42;9.65;;;4.70;99.90;;;;;;5032161;28;20034;-76
2023/11/17 07:04:06;;;;;;;22.60;9.85;;;4.70;99.90;;;;;;5032025;28;20017;-76
2023/11/17 07:06:32;;;;;;;16.42;9.55;;;4.70;99.90;;;;;;5032513;28;20081;-75
2023/11/17 07:08:58;;;;;;;17.50;9.27;;;4.70;99.90;;;;;;5032033;28;20045;-74
2023/11/17 07:11:25;;;;;;;18.25;9.55;;;4.70;99.90;;;;;;5031976;28;20030;-75
2023/11/17 07:13:55;;;;;;;19.15;9.50;;;4.70;99.90;;;;;;5032621;28;20014;-75
2023/11/17 07:16:24;;;;;;;17.52;10.02;;;4.70;99.90;;;;;;5032575;28;20041;-77
2023/11/17 07:18:50;;;;;;;19.65;9.88;;;4.80;99.90;;;;;;5031964;28;20022;-72
2023/11/17 07:21:15;;;;;;;20.00;10.23;;;4.80;99.90;;;;;;5032253;28;20050;-75
2023/11/17 07:23:43;;;;;;;18.27;9.73;;;4.80;99.90;;;;;;5032325;28;20446;-74
2023/11/17 07:26:17;;;;;;;17.67;10.27;;;4.80;99.90;;;;;;5032014;28;20474;-73
2023/11/17 07:28:47;;;;;;;21.48;10.13;;;4.80;99.90;;;;;;5047246;28;20584;-75
2023/11/17 07:31:18;;;;;;;17.17;9.57;;;4.80;99.90;;;;;;5031353;28;20030;-75
2023/11/17 07:33:44;;;;;;;21.70;10.00;;;4.90;99.90;;;;;;5034019;28;20034;-74
2023/11/17 07:36:15;;;;;;;19.85;10.38;;;4.90;99.90;;;;;;5036033;28;20041;-76
2023/11/17 07:38:42;;;;;;;22.23;9.68;;;5.00;99.90;;;;;;5032376;28;20124;-74
2023/11/17 07:41:08;;;;;;;18.80;9.27;;;5.00;99.90;;;;;;5032985;28;20036;-74
2023/11/17 07:43:33;;;;;;;16.05;9.55;;;5.00;99.90;;;;;;5031908;28;20033;-75
2023/11/17 07:46:02;;;;;;;19.52;9.65;;;5.20;99.90;;;;;;5032730;28;20028;-76
2023/11/17 07:48:32;;;;;;;14.70;9.15;;;5.30;99.90;;;;;;5032649;28;20033;-75
2023/11/17 07:50:58;;;;;;;16.85;9.02;;;5.30;99.90;;;;;;5031202;28;20025;-75
2023/11/17 07:53:24;;;;;;;15.43;8.95;;;5.30;99.90;;;;;;5031699;28;20496;-75
2023/11/17 07:55:52;;;;;;;18.15;9.52;;;5.30;99.90;;;;;;5037562;28;20038;-75
2023/11/17 07:58:20;;;;;;;19.48;10.20;;;5.30;99.90;;;;;;5032482;28;20030;-74
2023/11/17 08:00:49;;;;;;;20.45;9.57;;;5.30;99.90;;;;;;5035939;28;20036;-75
2023/11/17 08:03:16;;;;;;;28.17;10.48;;;5.30;99.90;;;;;;5031129;28;20029;-76
2023/11/17 08:05:43;;;;;;;19.27;10.32;;;5.30;99.90;;;;;;5032850;28;20037;-75
2023/11/17 08:08:09;;;;;;;20.27;10.73;;;5.30;99.90;;;;;;5031527;28;20057;-76
2023/11/17 08:10:35;;;;;;;18.17;10.93;;;5.30;99.90;;;;;;5047515;28;20040;-75
2023/11/17 08:13:03;;;;;;;18.70;10.82;;;5.30;99.90;;;;;;5030536;28;20033;-76
2023/11/17 08:15:29;;;;;;;20.30;10.95;;;5.40;99.90;;;;;;5035856;28;20076;-75
2023/11/17 08:17:55;;;;;;;23.65;10.90;;;5.60;99.90;;;;;;5029960;28;20021;-73
2023/11/17 08:20:22;;;;;;;20.33;10.23;;;5.70;99.90;;;;;;5031967;28;20071;-76
2023/11/17 08:22:48;;;;;;;18.13;9.75;;;5.70;99.90;;;;;;5031585;28;20025;-76
2023/11/17 08:25:16;;;;;;;15.00;8.90;;;5.60;99.90;;;;;;5026790;28;20044;-77
2023/11/17 08:27:42;;;;;;;12.43;8.07;;;5.50;99.90;;;;;;5020639;28;20124;-74
2023/11/17 08:30:08;;;;;;;13.20;7.93;;;5.50;99.90;;;;;;5022609;28;20322;-73
2023/11/17 08:32:37;;;;;;;15.30;7.60;;;5.40;99.90;;;;;;5035310;28;20037;-74
2023/11/17 08:35:04;;;;;;;13.77;7.70;;;5.40;99.90;;;;;;5028339;28;20102;-74
2023/11/17 08:37:32;;;;;;;12.85;7.88;;;5.40;99.90;;;;;;5030043;28;20026;-73
2023/11/17 08:40:08;;;;;;;14.32;8.13;;;5.40;99.90;;;;;;5037436;28;20026;-76
2023/11/17 08:42:43;;;;;;;15.50;7.55;;;5.50;99.90;;;;;;5030725;28;20021;-76
2023/11/17 08:45:09;;;;;;;18.42;8.40;;;5.50;99.90;;;;;;5036964;28;20056;-74
2023/11/17 08:47:39;;;;;;;16.88;8.82;;;5.70;99.90;;;;;;5037035;28;20576;-76
2023/11/17 08:50:07;;;;;;;13.95;7.15;;;5.90;99.90;;;;;;5045209;28;20108;-78
2023/11/17 08:52:37;;;;;;;14.35;7.53;;;6.10;99.90;;;;;;5029187;28;20147;-75
2023/11/17 08:55:07;;;;;;;14.63;7.50;;;6.20;99.90;;;;;;5035755;28;20049;-74
2023/11/17 08:57:33;;;;;;;10.02;6.95;;;6.30;99.90;;;;;;5030464;28;20049;-79
2023/11/17 08:59:59;;;;;;;13.95;7.70;;;6.40;99.90;;;;;;5029062;28;20037;-75
2023/11/17 09:02:26;;;;;;;12.85;7.65;;;6.30;99.90;;;;;;5031760;28;20022;-75
2023/11/17 09:04:52;;;;;;;14.40;7.47;;;6.30;99.90;;;;;;5029043;28;20036;-74
2023/11/17 09:07:22;;;;;;;14.85;7.90;;;6.30;99.90;;;;;;5027456;28;20397;-75
2023/11/17 09:09:47;;;;;;;17.23;8.00;;;6.30;99.90;;;;;;5030222;28;20486;-74
2023/11/17 09:12:17;;;;;;;15.57;8.38;;;6.30;99.90;;;;;;5030004;28;20046;-76
2023/11/17 09:14:43;;;;;;;12.68;7.65;;;6.40;99.90;;;;;;5030078;28;20093;-74
2023/11/17 09:17:09;;;;;;;12.27;7.22;;;6.40;99.90;;;;;;5029278;28;20077;-73
2023/11/17 09:19:36;;;;;;;12.13;7.00;;;6.40;99.90;;;;;;5029948;28;20032;-75
2023/11/17 09:22:02;;;;;;;10.98;7.25;;;6.30;99.90;;;;;;5036681;28;20120;-73
2023/11/17 09:24:28;;;;;;;14.38;8.10;;;6.40;99.90;;;;;;5029889;28;20045;-74
2023/11/17 09:26:53;;;;;;;17.02;9.20;;;6.50;99.90;;;;;;5036032;28;20026;-76
2023/11/17 09:29:19;;;;;;;12.50;7.95;;;6.60;99.90;;;;;;5030481;28;20120;-74
2023/11/17 09:31:47;;;;;;;11.88;7.80;;;6.70;99.90;;;;;;5029743;28;20108;-75
2023/11/17 09:34:14;;;;;;;11.93;7.43;;;6.70;99.90;;;;;;5037111;28;20037;-76
2023/11/17 09:36:40;;;;;;;9.68;5.82;;;6.80;99.90;;;;;;5032780;28;20045;-75
2023/11/17 09:39:09;;;;;;;8.73;6.05;;;6.90;99.90;;;;;;5033292;28;20018;-72
2023/11/17 09:41:38;;;;;;;9.43;4.80;;;6.80;99.90;;;;;;5033997;28;20018;-74
2023/11/17 09:44:06;;;;;;;9.80;5.53;;;6.70;99.90;;;;;;5034260;28;20334;-76
2023/11/17 09:46:36;;;;;;;9.15;5.30;;;6.60;99.90;;;;;;5033021;28;20030;-73
2023/11/17 09:49:05;;;;;;;8.73;4.95;;;6.70;99.90;;;;;;5033049;28;20022;-74
2023/11/17 09:51:34;;;;;;;7.28;4.88;;;6.60;99.90;;;;;;5033537;28;20030;-73
2023/11/17 09:54:02;;;;;;;9.38;5.55;;;6.70;99.90;;;;;;5032419;28;20056;-77
2023/11/17 09:56:29;;;;;;;8.30;5.28;;;6.70;99.90;;;;;;5032359;28;20034;-74
2023/11/17 09:58:57;;;;;;;9.45;4.72;;;6.70;99.90;;;;;;5034515;28;20018;-77
2023/11/17 10:01:28;;;;;;;7.78;5.20;;;6.60;99.90;;;;;;5032499;28;20040;-75
2023/11/17 10:03:58;;;;;;;12.07;5.22;;;6.70;99.90;;;;;;5031899;28;20030;-74
2023/11/17 10:06:25;;;;;;;7.95;5.03;;;6.70;99.90;;;;;;5034144;28;20466;-75
2023/11/17 10:08:52;;;;;;;8.07;4.90;;;6.70;99.90;;;;;;5030531;28;20039;-75
2023/11/17 10:11:18;;;;;;;7.80;4.78;;;6.70;99.90;;;;;;5033202;28;20092;-77
2023/11/17 10:13:48;;;;;;;9.35;4.90;;;6.70;99.90;;;;;;5033387;28;20025;-76
2023/11/17 10:16:18;;;;;;;7.47;4.95;;;6.70;99.90;;;;;;5037896;28;20137;-75
2023/11/17 10:18:44;;;;;;;9.95;5.32;;;6.90;99.90;;;;;;5047096;28;20030;-76
2023/11/17 10:21:10;;;;;;;9.27;5.18;;;7.10;99.90;;;;;;5031226;28;20029;-75
2023/11/17 10:23:39;;;;;;;6.85;4.95;;;7.10;99.90;;;;;;5032605;28;20029;-75
2023/11/17 10:26:07;;;;;;;8.23;6.10;;;7.30;99.90;;;;;;5032685;28;20022;-74
2023/11/17 10:28:35;;;;;;;7.47;4.57;;;7.30;99.90;;;;;;5032737;28;20026;-72
2023/11/17 10:31:05;;;;;;;8.77;5.45;;;7.40;99.90;;;;;;5030401;28;20327;-75
2023/11/17 10:33:34;;;;;;;6.15;4.60;;;7.50;99.90;;;;;;5032878;28;20029;-78
2023/11/17 10:36:10;;;;;;;7.57;4.10;;;7.50;99.90;;;;;;5032808;28;20196;-75
2023/11/17 10:38:36;;;;;;;8.32;4.68;;;7.70;99.90;;;;;;5034761;28;20117;-77
2023/11/17 10:41:26;;;;;;;6.45;4.38;;;7.70;99.90;;;;;;5029285;28;20072;-74
2023/11/17 10:43:59;;;;;;;5.80;3.72;;;7.90;99.90;;;;;;5038024;28;20032;-75
2023/11/17 10:46:31;;;;;;;7.45;3.70;;;8.00;99.90;;;;;;5031772;28;20032;-74
2023/11/17 10:48:59;;;;;;;7.05;3.40;;;8.00;99.90;;;;;;5032130;28;20034;-76
2023/11/17 10:51:31;;;;;;;7.35;3.60;;;8.10;99.90;;;;;;5031489;28;20029;-76
2023/11/17 10:54:09;;;;;;;3.95;2.67;;;8.00;99.90;;;;;;5048524;28;20026;-76
2023/11/17 10:56:36;;;;;;;6.00;3.13;;;7.80;99.90;;;;;;5031931;28;20034;-76
2023/11/17 10:59:09;;;;;;;5.80;3.58;;;7.80;99.90;;;;;;5031442;28;20036;-76
2023/11/17 11:01:40;;;;;;;6.90;4.00;;;7.70;99.90;;;;;;5032047;28;20021;-77
2023/11/17 11:04:09;;;;;;;5.60;3.30;;;7.60;99.90;;;;;;5031850;28;20021;-75
2023/11/17 11:06:42;;;;;;;7.50;3.13;;;7.70;99.90;;;;;;5037411;28;20124;-76
2023/11/17 11:09:16;;;;;;;7.38;3.78;;;7.60;99.90;;;;;;5031981;28;20045;-74
2023/11/17 11:11:48;;;;;;;5.10;3.50;;;7.50;99.90;;;;;;5032012;28;20466;-77
2023/11/17 11:14:17;;;;;;;5.85;3.40;;;7.50;99.90;;;;;;5031214;28;20041;-75
2023/11/17 11:16:46;;;;;;;5.63;4.05;;;7.50;99.90;;;;;;5037843;28;20080;-76
2023/11/17 11:19:14;;;;;;;6.55;4.20;;;7.60;99.90;;;;;;5031463;28;20030;-74
2023/11/17 11:21:40;;;;;;;6.40;4.32;;;7.80;99.90;;;;;;5030976;28;20362;-75
2023/11/17 11:24:08;;;;;;;8.13;4.30;;;8.00;99.90;;;;;;5038217;28;20041;-77
2023/11/17 11:26:38;;;;;;;6.05;3.25;;;8.30;99.90;;;;;;5031059;28;20021;-76
2023/11/17 11:29:05;;;;;;;4.95;2.88;;;8.70;99.90;;;;;;5029999;28;20554;-74
2023/11/17 11:31:32;;;;;;;3.92;2.63;;;9.10;99.90;;;;;;5034638;28;20097;-74
2023/11/17 11:34:01;;;;;;;2.90;2.30;;;9.40;99.90;;;;;;5031301;28;20042;-76
2023/11/17 11:36:27;;;;;;;6.07;2.58;;;9.60;99.90;;;;;;5031706;28;20029;-78
2023/11/17 11:38:52;;;;;;;3.67;2.70;;;9.80;99.90;;;;;;5031656;28;20021;-76
2023/11/17 11:41:22;;;;;;;2.70;2.00;;;9.60;99.90;;;;;;5029218;28;20061;-75
2023/11/17 11:43:52;;;;;;;3.53;1.88;;;9.40;99.90;;;;;;5031240;28;20155;-75
2023/11/17 11:46:21;;;;;;;4.55;2.08;;;9.30;99.90;;;;;;5031288;28;20081;-75
2023/11/17 11:49:19;;;;;;;4.32;2.20;;;9.20;99.90;;;;;;5031222;28;20024;-77
2023/11/17 11:51:59;;;;;;;4.78;2.00;;;9.10;99.90;;;;;;5020349;28;20470;-77
2023/11/17 11:54:26;;;;;;;4.18;2.03;;;9.00;99.90;;;;;;5046541;28;20036;-75
2023/11/17 11:56:51;;;;;;;4.13;2.20;;;8.90;99.90;;;;;;5037490;28;20045;-76
2023/11/17 11:59:17;;;;;;;2.28;1.60;;;9.00;99.90;;;;;;5031760;28;20033;-75
2023/11/17 12:01:46;;;;;;;2.92;2.22;;;9.20;99.90;;;;;;5031327;28;20025;-74
2023/11/17 12:04:11;;;;;;;4.05;2.50;;;9.30;99.90;;;;;;5031517;28;20081;-75
2023/11/17 12:06:41;;;;;;;5.13;2.80;;;9.50;99.90;;;;;;5031977;28;20022;-75
2023/11/17 12:09:16;;;;;;;4.18;2.47;;;9.50;99.90;;;;;;5031187;28;20040;-76
2023/11/17 12:11:44;;;;;;;;;;;9.40;99.90;;;;;;5032052;28;20053;-76
2023/11/17 12:14:12;;;;;;;16.02;6.45;;;9.30;99.90;;;;;;5046623;28;20234;-74
2023/11/17 12:16:38;;;;;;;11.48;5.47;;;9.10;99.90;;;;;;5032154;28;20101;-72
2023/11/17 12:19:05;;;;;;;5.95;3.08;;;9.00;99.90;;;;;;5031434;28;20060;-77
2023/11/17 12:21:38;;;;;;;5.20;3.00;;;8.90;99.90;;;;;;5030793;28;20038;-76
2023/11/17 12:24:12;;;;;;;4.55;2.10;;;8.60;99.90;;;;;;5032076;28;20029;-76
2023/11/17 12:26:41;;;;;;;2.80;1.95;;;8.60;99.90;;;;;;5035137;28;20033;-76
2023/11/17 12:29:11;;;;;;;2.75;1.80;;;8.40;99.90;;;;;;5036046;28;20105;-75
2023/11/17 12:31:38;;;;;;;2.50;1.90;;;8.30;99.90;;;;;;5032242;28;20028;-75
2023/11/17 12:34:05;;;;;;;5.90;2.08;;;8.30;99.90;;;;;;5031164;28;20029;-74
2023/11/17 12:36:31;;;;;;;7.70;3.25;;;8.20;99.90;;;;;;5031277;28;20140;-77
2023/11/17 12:38:59;;;;;;;6.10;3.30;;;8.20;99.90;;;;;;5037888;28;20060;-76
2023/11/17 12:41:26;;;;;;;4.25;2.88;;;8.20;99.90;;;;;;5032141;28;20111;-75
2023/11/17 12:43:54;;;;;;;4.10;2.10;;;8.20;99.90;;;;;;5031674;28;20027;-77
2023/11/17 12:46:20;;;;;;;3.10;1.75;;;8.20;99.90;;;;;;5046724;28;20026;-77
2023/11/17 12:48:46;;;;;;;2.75;1.80;;;8.20;99.90;;;;;;5030267;28;20050;-75
2023/11/17 12:51:25;;;;;;;3.42;1.60;;;8.10;99.90;;;;;;5030782;28;20033;-76
2023/11/17 12:53:52;;;;;;;2.63;1.50;;;8.10;99.90;;;;;;5034189;28;20022;-76
2023/11/17 12:56:18;;;;;;;6.75;1.77;;;8.20;99.90;;;;;;5031356;28;20041;-76
2023/11/17 12:58:44;;;;;;;2.40;1.38;;;8.30;99.90;;;;;;5046082;28;20045;-77